sensor_id;sensor_type;location;lat;lon;timestamp;P1;durP1;ratioP1;P2;durP2;ratioP2
4565;SDS011;2295;51.050;14.608;2022-11-30T00:01:22;41.17;;;19.40;;
4565;SDS011;2295;51.050;14.608;2022-11-30T00:03:51;42.28;;;19.92;;
4565;SDS011;2295;51.050;14.608;2022-11-30T00:06:21;46.85;;;20.80;;
4565;SDS011;2295;51.050;14.608;2022-11-30T00:08:52;41.80;;;19.38;;
4565;SDS011;2295;51.050;14.608;2022-11-30T00:11:21;37.60;;;18.58;;
4565;SDS011;2295;51.050;14.608;2022-11-30T00:13:51;40.65;;;19.35;;
4565;SDS011;2295;51.050;14.608;2022-11-30T00:16:19;43.28;;;20.73;;
4565;SDS011;2295;51.050;14.608;2022-11-30T00:18:48;43.42;;;20.83;;
4565;SDS011;2295;51.050;14.608;2022-11-30T00:21:17;43.10;;;19.35;;
4565;SDS011;2295;51.050;14.608;2022-11-30T00:23:46;41.78;;;18.42;;
4565;SDS011;2295;51.050;14.608;2022-11-30T00:26:17;38.00;;;18.50;;
4565;SDS011;2295;51.050;14.608;2022-11-30T00:28:48;37.30;;;18.60;;
4565;SDS011;2295;51.050;14.608;2022-11-30T00:31:16;43.65;;;19.88;;
4565;SDS011;2295;51.050;14.608;2022-11-30T00:33:45;44.60;;;19.15;;
4565;SDS011;2295;51.050;14.608;2022-11-30T00:36:14;46.05;;;20.45;;
4565;SDS011;2295;51.050;14.608;2022-11-30T00:38:44;40.42;;;19.85;;
4565;SDS011;2295;51.050;14.608;2022-11-30T00:41:12;41.58;;;20.08;;
4565;SDS011;2295;51.050;14.608;2022-11-30T00:43:43;46.00;;;18.88;;
4565;SDS011;2295;51.050;14.608;2022-11-30T00:46:11;37.90;;;18.63;;
4565;SDS011;2295;51.050;14.608;2022-11-30T00:48:40;42.10;;;18.83;;
4565;SDS011;2295;51.050;14.608;2022-11-30T00:51:08;39.92;;;18.80;;
4565;SDS011;2295;51.050;14.608;2022-11-30T00:53:38;42.17;;;19.38;;
4565;SDS011;2295;51.050;14.608;2022-11-30T00:56:07;38.55;;;18.88;;
4565;SDS011;2295;51.050;14.608;2022-11-30T00:58:36;39.30;;;18.05;;
4565;SDS011;2295;51.050;14.608;2022-11-30T01:01:07;42.83;;;19.30;;
4565;SDS011;2295;51.050;14.608;2022-11-30T01:03:35;39.80;;;18.50;;
4565;SDS011;2295;51.050;14.608;2022-11-30T01:06:04;36.80;;;18.95;;
4565;SDS011;2295;51.050;14.608;2022-11-30T01:08:34;43.25;;;20.33;;
4565;SDS011;2295;51.050;14.608;2022-11-30T01:11:03;39.88;;;19.85;;
4565;SDS011;2295;51.050;14.608;2022-11-30T01:13:33;39.53;;;17.42;;
4565;SDS011;2295;51.050;14.608;2022-11-30T01:16:08;36.45;;;17.40;;
4565;SDS011;2295;51.050;14.608;2022-11-30T01:18:37;40.30;;;18.80;;
4565;SDS011;2295;51.050;14.608;2022-11-30T01:21:06;42.25;;;19.15;;
4565;SDS011;2295;51.050;14.608;2022-11-30T01:23:36;40.85;;;18.15;;
4565;SDS011;2295;51.050;14.608;2022-11-30T01:26:04;35.63;;;17.65;;
4565;SDS011;2295;51.050;14.608;2022-11-30T01:28:33;36.28;;;17.83;;
4565;SDS011;2295;51.050;14.608;2022-11-30T01:31:02;35.00;;;18.35;;
4565;SDS011;2295;51.050;14.608;2022-11-30T01:33:34;43.63;;;18.98;;
4565;SDS011;2295;51.050;14.608;2022-11-30T01:36:03;41.25;;;18.15;;
4565;SDS011;2295;51.050;14.608;2022-11-30T01:38:34;36.42;;;17.40;;
4565;SDS011;2295;51.050;14.608;2022-11-30T01:41:05;39.00;;;19.33;;
4565;SDS011;2295;51.050;14.608;2022-11-30T01:43:36;41.70;;;18.88;;
4565;SDS011;2295;51.050;14.608;2022-11-30T01:46:05;39.85;;;18.90;;
4565;SDS011;2295;51.050;14.608;2022-11-30T01:48:58;37.50;;;18.05;;
4565;SDS011;2295;51.050;14.608;2022-11-30T01:51:30;44.50;;;17.08;;
4565;SDS011;2295;51.050;14.608;2022-11-30T01:54:03;37.67;;;18.25;;
4565;SDS011;2295;51.050;14.608;2022-11-30T01:56:35;35.72;;;17.65;;
4565;SDS011;2295;51.050;14.608;2022-11-30T01:59:06;40.85;;;18.33;;
4565;SDS011;2295;51.050;14.608;2022-11-30T02:01:35;34.45;;;16.70;;
4565;SDS011;2295;51.050;14.608;2022-11-30T02:04:06;39.08;;;19.25;;
4565;SDS011;2295;51.050;14.608;2022-11-30T02:06:37;41.45;;;18.65;;
4565;SDS011;2295;51.050;14.608;2022-11-30T02:09:06;38.88;;;18.38;;
4565;SDS011;2295;51.050;14.608;2022-11-30T02:11:35;40.00;;;18.40;;
4565;SDS011;2295;51.050;14.608;2022-11-30T02:14:07;37.30;;;17.98;;
4565;SDS011;2295;51.050;14.608;2022-11-30T02:16:47;36.80;;;17.77;;
4565;SDS011;2295;51.050;14.608;2022-11-30T02:19:31;39.03;;;17.52;;
4565;SDS011;2295;51.050;14.608;2022-11-30T02:22:18;42.20;;;18.95;;
4565;SDS011;2295;51.050;14.608;2022-11-30T02:25:02;44.40;;;19.73;;
4565;SDS011;2295;51.050;14.608;2022-11-30T02:27:44;38.38;;;19.33;;
4565;SDS011;2295;51.050;14.608;2022-11-30T02:30:27;47.90;;;18.35;;
4565;SDS011;2295;51.050;14.608;2022-11-30T02:33:02;41.97;;;18.30;;
4565;SDS011;2295;51.050;14.608;2022-11-30T02:35:36;39.92;;;18.33;;
4565;SDS011;2295;51.050;14.608;2022-11-30T02:38:08;40.50;;;18.98;;
4565;SDS011;2295;51.050;14.608;2022-11-30T02:40:37;44.10;;;19.30;;
4565;SDS011;2295;51.050;14.608;2022-11-30T02:43:05;38.03;;;18.13;;
4565;SDS011;2295;51.050;14.608;2022-11-30T02:45:37;38.97;;;18.08;;
4565;SDS011;2295;51.050;14.608;2022-11-30T02:48:11;40.67;;;18.40;;
4565;SDS011;2295;51.050;14.608;2022-11-30T02:50:44;46.55;;;18.90;;
4565;SDS011;2295;51.050;14.608;2022-11-30T02:53:16;47.17;;;19.60;;
4565;SDS011;2295;51.050;14.608;2022-11-30T02:55:45;39.05;;;17.65;;
4565;SDS011;2295;51.050;14.608;2022-11-30T02:58:13;41.03;;;18.80;;
4565;SDS011;2295;51.050;14.608;2022-11-30T03:00:45;41.13;;;18.63;;
4565;SDS011;2295;51.050;14.608;2022-11-30T03:03:13;42.83;;;19.80;;
4565;SDS011;2295;51.050;14.608;2022-11-30T03:05:42;43.83;;;19.35;;
4565;SDS011;2295;51.050;14.608;2022-11-30T03:08:11;41.08;;;18.58;;
4565;SDS011;2295;51.050;14.608;2022-11-30T03:10:39;42.28;;;18.48;;
4565;SDS011;2295;51.050;14.608;2022-11-30T03:13:07;41.53;;;19.20;;
4565;SDS011;2295;51.050;14.608;2022-11-30T03:15:35;43.08;;;19.15;;
4565;SDS011;2295;51.050;14.608;2022-11-30T03:18:05;38.80;;;18.13;;
4565;SDS011;2295;51.050;14.608;2022-11-30T03:20:33;47.25;;;20.08;;
4565;SDS011;2295;51.050;14.608;2022-11-30T03:23:02;47.55;;;18.85;;
4565;SDS011;2295;51.050;14.608;2022-11-30T03:25:30;43.40;;;18.95;;
4565;SDS011;2295;51.050;14.608;2022-11-30T03:27:59;42.17;;;18.80;;
4565;SDS011;2295;51.050;14.608;2022-11-30T03:30:27;47.25;;;20.80;;
4565;SDS011;2295;51.050;14.608;2022-11-30T03:32:56;44.80;;;19.90;;
4565;SDS011;2295;51.050;14.608;2022-11-30T03:35:25;49.08;;;19.30;;
4565;SDS011;2295;51.050;14.608;2022-11-30T03:37:54;40.78;;;19.65;;
4565;SDS011;2295;51.050;14.608;2022-11-30T03:40:22;41.60;;;19.17;;
4565;SDS011;2295;51.050;14.608;2022-11-30T03:42:51;44.78;;;19.63;;
4565;SDS011;2295;51.050;14.608;2022-11-30T03:45:19;43.42;;;19.75;;
4565;SDS011;2295;51.050;14.608;2022-11-30T03:47:47;44.05;;;19.30;;
4565;SDS011;2295;51.050;14.608;2022-11-30T03:50:16;46.17;;;20.38;;
4565;SDS011;2295;51.050;14.608;2022-11-30T03:52:45;40.22;;;18.45;;
4565;SDS011;2295;51.050;14.608;2022-11-30T03:55:14;39.55;;;18.88;;
4565;SDS011;2295;51.050;14.608;2022-11-30T03:57:42;41.42;;;17.90;;
4565;SDS011;2295;51.050;14.608;2022-11-30T04:00:11;39.78;;;18.85;;
4565;SDS011;2295;51.050;14.608;2022-11-30T04:02:40;40.47;;;18.92;;
4565;SDS011;2295;51.050;14.608;2022-11-30T04:05:10;43.17;;;19.58;;
4565;SDS011;2295;51.050;14.608;2022-11-30T04:07:39;35.33;;;17.17;;
4565;SDS011;2295;51.050;14.608;2022-11-30T04:10:09;41.40;;;18.50;;
4565;SDS011;2295;51.050;14.608;2022-11-30T04:12:40;42.00;;;18.52;;
4565;SDS011;2295;51.050;14.608;2022-11-30T04:15:09;41.30;;;18.52;;
4565;SDS011;2295;51.050;14.608;2022-11-30T04:17:37;39.42;;;17.75;;
4565;SDS011;2295;51.050;14.608;2022-11-30T04:20:06;37.42;;;17.83;;
4565;SDS011;2295;51.050;14.608;2022-11-30T04:22:34;38.13;;;17.00;;
4565;SDS011;2295;51.050;14.608;2022-11-30T04:25:03;40.42;;;18.30;;
4565;SDS011;2295;51.050;14.608;2022-11-30T04:27:33;38.40;;;18.00;;
4565;SDS011;2295;51.050;14.608;2022-11-30T04:30:01;37.55;;;18.40;;
4565;SDS011;2295;51.050;14.608;2022-11-30T04:32:29;39.08;;;18.52;;
4565;SDS011;2295;51.050;14.608;2022-11-30T04:34:58;40.90;;;16.95;;
4565;SDS011;2295;51.050;14.608;2022-11-30T04:37:26;40.05;;;18.35;;
4565;SDS011;2295;51.050;14.608;2022-11-30T04:39:55;43.22;;;17.50;;
4565;SDS011;2295;51.050;14.608;2022-11-30T04:42:23;43.13;;;19.00;;
4565;SDS011;2295;51.050;14.608;2022-11-30T04:44:52;41.90;;;17.88;;
4565;SDS011;2295;51.050;14.608;2022-11-30T04:47:21;36.72;;;17.42;;
4565;SDS011;2295;51.050;14.608;2022-11-30T04:49:49;39.72;;;16.90;;
4565;SDS011;2295;51.050;14.608;2022-11-30T04:52:17;41.67;;;18.13;;
4565;SDS011;2295;51.050;14.608;2022-11-30T04:54:46;37.05;;;17.30;;
4565;SDS011;2295;51.050;14.608;2022-11-30T04:57:15;38.90;;;17.65;;
4565;SDS011;2295;51.050;14.608;2022-11-30T04:59:43;38.35;;;17.95;;
4565;SDS011;2295;51.050;14.608;2022-11-30T05:02:13;41.55;;;18.20;;
4565;SDS011;2295;51.050;14.608;2022-11-30T05:04:41;38.70;;;18.27;;
4565;SDS011;2295;51.050;14.608;2022-11-30T05:07:10;36.28;;;16.83;;
4565;SDS011;2295;51.050;14.608;2022-11-30T05:09:38;39.65;;;18.02;;
4565;SDS011;2295;51.050;14.608;2022-11-30T05:12:06;36.65;;;17.10;;
4565;SDS011;2295;51.050;14.608;2022-11-30T05:14:34;39.55;;;17.35;;
4565;SDS011;2295;51.050;14.608;2022-11-30T05:17:03;35.67;;;17.00;;
4565;SDS011;2295;51.050;14.608;2022-11-30T05:19:33;38.72;;;18.10;;
4565;SDS011;2295;51.050;14.608;2022-11-30T05:22:01;38.80;;;16.67;;
4565;SDS011;2295;51.050;14.608;2022-11-30T05:24:29;36.60;;;16.80;;
4565;SDS011;2295;51.050;14.608;2022-11-30T05:26:58;40.63;;;17.85;;
4565;SDS011;2295;51.050;14.608;2022-11-30T05:29:26;35.00;;;17.92;;
4565;SDS011;2295;51.050;14.608;2022-11-30T05:31:54;38.33;;;17.08;;
4565;SDS011;2295;51.050;14.608;2022-11-30T05:34:23;39.78;;;18.35;;
4565;SDS011;2295;51.050;14.608;2022-11-30T05:36:52;44.67;;;18.92;;
4565;SDS011;2295;51.050;14.608;2022-11-30T05:39:21;39.63;;;17.85;;
4565;SDS011;2295;51.050;14.608;2022-11-30T05:41:49;38.58;;;17.90;;
4565;SDS011;2295;51.050;14.608;2022-11-30T05:44:17;40.95;;;19.35;;
4565;SDS011;2295;51.050;14.608;2022-11-30T05:46:45;45.33;;;19.83;;
4565;SDS011;2295;51.050;14.608;2022-11-30T05:49:13;44.70;;;19.42;;
4565;SDS011;2295;51.050;14.608;2022-11-30T05:51:42;46.75;;;20.67;;
4565;SDS011;2295;51.050;14.608;2022-11-30T05:54:11;44.17;;;21.27;;
4565;SDS011;2295;51.050;14.608;2022-11-30T05:56:39;46.83;;;20.10;;
4565;SDS011;2295;51.050;14.608;2022-11-30T05:59:08;46.40;;;20.63;;
4565;SDS011;2295;51.050;14.608;2022-11-30T06:01:37;46.13;;;20.45;;
4565;SDS011;2295;51.050;14.608;2022-11-30T06:04:05;42.55;;;19.02;;
4565;SDS011;2295;51.050;14.608;2022-11-30T06:06:34;42.75;;;18.38;;
4565;SDS011;2295;51.050;14.608;2022-11-30T06:09:02;40.28;;;19.20;;
4565;SDS011;2295;51.050;14.608;2022-11-30T06:11:32;42.13;;;18.98;;
4565;SDS011;2295;51.050;14.608;2022-11-30T06:14:01;40.17;;;18.75;;
4565;SDS011;2295;51.050;14.608;2022-11-30T06:16:29;39.88;;;17.83;;
4565;SDS011;2295;51.050;14.608;2022-11-30T06:18:57;34.28;;;16.85;;
4565;SDS011;2295;51.050;14.608;2022-11-30T06:21:25;39.83;;;17.90;;
4565;SDS011;2295;51.050;14.608;2022-11-30T06:23:54;36.92;;;17.35;;
4565;SDS011;2295;51.050;14.608;2022-11-30T06:26:25;38.60;;;16.73;;
4565;SDS011;2295;51.050;14.608;2022-11-30T06:28:54;41.00;;;17.40;;
4565;SDS011;2295;51.050;14.608;2022-11-30T06:31:22;39.75;;;17.30;;
4565;SDS011;2295;51.050;14.608;2022-11-30T06:33:51;45.72;;;19.83;;
4565;SDS011;2295;51.050;14.608;2022-11-30T06:36:22;45.95;;;20.08;;
4565;SDS011;2295;51.050;14.608;2022-11-30T06:38:50;46.25;;;20.90;;
4565;SDS011;2295;51.050;14.608;2022-11-30T06:41:18;52.20;;;20.80;;
4565;SDS011;2295;51.050;14.608;2022-11-30T06:43:47;43.55;;;19.05;;
4565;SDS011;2295;51.050;14.608;2022-11-30T06:46:16;45.30;;;18.98;;
4565;SDS011;2295;51.050;14.608;2022-11-30T06:48:46;42.67;;;17.95;;
4565;SDS011;2295;51.050;14.608;2022-11-30T06:51:16;43.13;;;18.92;;
4565;SDS011;2295;51.050;14.608;2022-11-30T06:53:44;46.65;;;18.45;;
4565;SDS011;2295;51.050;14.608;2022-11-30T06:56:13;48.60;;;19.55;;
4565;SDS011;2295;51.050;14.608;2022-11-30T06:58:41;56.45;;;26.02;;
4565;SDS011;2295;51.050;14.608;2022-11-30T07:01:10;50.05;;;22.40;;
4565;SDS011;2295;51.050;14.608;2022-11-30T07:03:41;51.38;;;19.27;;
4565;SDS011;2295;51.050;14.608;2022-11-30T07:06:11;51.92;;;18.45;;
4565;SDS011;2295;51.050;14.608;2022-11-30T07:08:40;45.38;;;17.60;;
4565;SDS011;2295;51.050;14.608;2022-11-30T07:11:09;46.50;;;19.77;;
4565;SDS011;2295;51.050;14.608;2022-11-30T07:13:38;49.88;;;18.67;;
4565;SDS011;2295;51.050;14.608;2022-11-30T07:16:07;52.58;;;21.85;;
4565;SDS011;2295;51.050;14.608;2022-11-30T07:18:37;52.78;;;22.42;;
4565;SDS011;2295;51.050;14.608;2022-11-30T07:21:08;53.85;;;23.08;;
4565;SDS011;2295;51.050;14.608;2022-11-30T07:23:37;61.22;;;23.33;;
4565;SDS011;2295;51.050;14.608;2022-11-30T07:26:28;59.83;;;22.52;;
4565;SDS011;2295;51.050;14.608;2022-11-30T07:28:56;45.70;;;22.08;;
4565;SDS011;2295;51.050;14.608;2022-11-30T07:31:25;51.75;;;22.40;;
4565;SDS011;2295;51.050;14.608;2022-11-30T07:33:55;52.08;;;20.05;;
4565;SDS011;2295;51.050;14.608;2022-11-30T07:36:26;48.72;;;20.58;;
4565;SDS011;2295;51.050;14.608;2022-11-30T07:38:55;45.63;;;20.17;;
4565;SDS011;2295;51.050;14.608;2022-11-30T07:41:24;47.20;;;19.77;;
4565;SDS011;2295;51.050;14.608;2022-11-30T07:43:52;43.97;;;19.33;;
4565;SDS011;2295;51.050;14.608;2022-11-30T07:46:21;44.03;;;18.10;;
4565;SDS011;2295;51.050;14.608;2022-11-30T07:48:49;41.83;;;19.10;;
4565;SDS011;2295;51.050;14.608;2022-11-30T07:51:18;53.35;;;20.05;;
4565;SDS011;2295;51.050;14.608;2022-11-30T07:53:49;49.95;;;20.35;;
4565;SDS011;2295;51.050;14.608;2022-11-30T07:56:18;56.28;;;23.00;;
4565;SDS011;2295;51.050;14.608;2022-11-30T07:58:46;52.10;;;19.13;;
4565;SDS011;2295;51.050;14.608;2022-11-30T08:01:16;45.42;;;19.25;;
4565;SDS011;2295;51.050;14.608;2022-11-30T08:03:47;48.03;;;19.83;;
4565;SDS011;2295;51.050;14.608;2022-11-30T08:06:17;47.85;;;20.55;;
4565;SDS011;2295;51.050;14.608;2022-11-30T08:08:47;49.63;;;20.20;;
4565;SDS011;2295;51.050;14.608;2022-11-30T08:11:18;45.35;;;19.75;;
4565;SDS011;2295;51.050;14.608;2022-11-30T08:13:48;41.95;;;18.42;;
4565;SDS011;2295;51.050;14.608;2022-11-30T08:16:17;37.30;;;16.35;;
4565;SDS011;2295;51.050;14.608;2022-11-30T08:18:47;42.65;;;18.30;;
4565;SDS011;2295;51.050;14.608;2022-11-30T08:21:17;37.22;;;18.75;;
4565;SDS011;2295;51.050;14.608;2022-11-30T08:23:46;37.40;;;16.67;;
4565;SDS011;2295;51.050;14.608;2022-11-30T08:26:18;39.05;;;17.52;;
4565;SDS011;2295;51.050;14.608;2022-11-30T08:28:47;38.17;;;17.85;;
4565;SDS011;2295;51.050;14.608;2022-11-30T08:31:18;40.90;;;18.58;;
4565;SDS011;2295;51.050;14.608;2022-11-30T08:33:48;41.33;;;17.40;;
4565;SDS011;2295;51.050;14.608;2022-11-30T08:36:17;40.33;;;18.40;;
4565;SDS011;2295;51.050;14.608;2022-11-30T08:38:46;43.88;;;17.63;;
4565;SDS011;2295;51.050;14.608;2022-11-30T08:41:16;42.63;;;18.40;;
4565;SDS011;2295;51.050;14.608;2022-11-30T08:43:47;40.78;;;17.15;;
4565;SDS011;2295;51.050;14.608;2022-11-30T08:46:17;35.15;;;16.35;;
4565;SDS011;2295;51.050;14.608;2022-11-30T08:49:06;42.58;;;19.95;;
4565;SDS011;2295;51.050;14.608;2022-11-30T08:51:47;36.08;;;16.88;;
4565;SDS011;2295;51.050;14.608;2022-11-30T08:54:37;38.17;;;18.73;;
4565;SDS011;2295;51.050;14.608;2022-11-30T08:57:09;40.22;;;18.98;;
4565;SDS011;2295;51.050;14.608;2022-11-30T08:59:37;34.97;;;17.25;;
4565;SDS011;2295;51.050;14.608;2022-11-30T09:02:07;32.83;;;16.25;;
4565;SDS011;2295;51.050;14.608;2022-11-30T09:04:36;32.13;;;15.90;;
4565;SDS011;2295;51.050;14.608;2022-11-30T09:07:04;31.55;;;16.63;;
4565;SDS011;2295;51.050;14.608;2022-11-30T09:09:32;33.00;;;15.90;;
4565;SDS011;2295;51.050;14.608;2022-11-30T09:12:00;31.23;;;16.10;;
4565;SDS011;2295;51.050;14.608;2022-11-30T09:14:30;34.03;;;15.88;;
4565;SDS011;2295;51.050;14.608;2022-11-30T09:16:59;31.13;;;16.35;;
4565;SDS011;2295;51.050;14.608;2022-11-30T09:19:27;28.40;;;15.32;;
4565;SDS011;2295;51.050;14.608;2022-11-30T09:21:55;32.90;;;15.07;;
4565;SDS011;2295;51.050;14.608;2022-11-30T09:24:24;32.72;;;14.30;;
4565;SDS011;2295;51.050;14.608;2022-11-30T09:26:53;23.98;;;14.05;;
4565;SDS011;2295;51.050;14.608;2022-11-30T09:29:22;26.15;;;14.48;;
4565;SDS011;2295;51.050;14.608;2022-11-30T09:31:52;28.05;;;14.63;;
4565;SDS011;2295;51.050;14.608;2022-11-30T09:34:20;26.08;;;15.68;;
4565;SDS011;2295;51.050;14.608;2022-11-30T09:36:48;26.60;;;14.60;;
4565;SDS011;2295;51.050;14.608;2022-11-30T09:39:17;26.17;;;14.82;;
4565;SDS011;2295;51.050;14.608;2022-11-30T09:41:51;26.20;;;14.93;;
4565;SDS011;2295;51.050;14.608;2022-11-30T09:44:35;27.17;;;15.07;;
4565;SDS011;2295;51.050;14.608;2022-11-30T09:47:14;24.52;;;13.88;;
4565;SDS011;2295;51.050;14.608;2022-11-30T09:50:00;29.85;;;15.00;;
4565;SDS011;2295;51.050;14.608;2022-11-30T09:52:32;29.55;;;15.38;;
4565;SDS011;2295;51.050;14.608;2022-11-30T09:55:04;34.63;;;16.95;;
4565;SDS011;2295;51.050;14.608;2022-11-30T09:57:40;28.33;;;14.70;;
4565;SDS011;2295;51.050;14.608;2022-11-30T10:00:13;31.23;;;15.27;;
4565;SDS011;2295;51.050;14.608;2022-11-30T10:02:46;32.40;;;14.13;;
4565;SDS011;2295;51.050;14.608;2022-11-30T10:05:16;31.05;;;14.73;;
4565;SDS011;2295;51.050;14.608;2022-11-30T10:07:50;34.55;;;16.50;;
4565;SDS011;2295;51.050;14.608;2022-11-30T10:10:35;27.60;;;13.65;;
4565;SDS011;2295;51.050;14.608;2022-11-30T10:16:09;27.85;;;14.43;;
4565;SDS011;2295;51.050;14.608;2022-11-30T10:18:48;28.23;;;14.90;;
4565;SDS011;2295;51.050;14.608;2022-11-30T10:21:26;27.20;;;14.18;;
4565;SDS011;2295;51.050;14.608;2022-11-30T10:24:24;26.20;;;14.55;;
4565;SDS011;2295;51.050;14.608;2022-11-30T10:27:01;29.05;;;15.07;;
4565;SDS011;2295;51.050;14.608;2022-11-30T10:29:39;28.75;;;14.68;;
4565;SDS011;2295;51.050;14.608;2022-11-30T10:32:11;28.02;;;15.75;;
4565;SDS011;2295;51.050;14.608;2022-11-30T10:34:46;32.45;;;16.25;;
4565;SDS011;2295;51.050;14.608;2022-11-30T10:37:18;28.50;;;13.98;;
4565;SDS011;2295;51.050;14.608;2022-11-30T10:39:52;22.80;;;13.05;;
4565;SDS011;2295;51.050;14.608;2022-11-30T10:42:27;24.38;;;13.00;;
4565;SDS011;2295;51.050;14.608;2022-11-30T10:44:59;23.10;;;13.20;;
4565;SDS011;2295;51.050;14.608;2022-11-30T10:47:30;23.40;;;13.40;;
4565;SDS011;2295;51.050;14.608;2022-11-30T10:50:04;28.83;;;15.25;;
4565;SDS011;2295;51.050;14.608;2022-11-30T10:52:36;25.48;;;15.00;;
4565;SDS011;2295;51.050;14.608;2022-11-30T10:55:11;28.60;;;15.30;;
4565;SDS011;2295;51.050;14.608;2022-11-30T10:57:41;29.60;;;14.30;;
4565;SDS011;2295;51.050;14.608;2022-11-30T11:00:11;31.15;;;16.73;;
4565;SDS011;2295;51.050;14.608;2022-11-30T11:02:43;29.23;;;15.05;;
4565;SDS011;2295;51.050;14.608;2022-11-30T11:05:16;27.83;;;15.80;;
4565;SDS011;2295;51.050;14.608;2022-11-30T11:07:50;29.35;;;15.05;;
4565;SDS011;2295;51.050;14.608;2022-11-30T11:10:33;31.83;;;16.63;;
4565;SDS011;2295;51.050;14.608;2022-11-30T11:13:03;31.40;;;16.42;;
4565;SDS011;2295;51.050;14.608;2022-11-30T11:15:32;30.08;;;15.82;;
4565;SDS011;2295;51.050;14.608;2022-11-30T11:18:18;37.15;;;16.88;;
4565;SDS011;2295;51.050;14.608;2022-11-30T11:20:52;32.35;;;16.77;;
4565;SDS011;2295;51.050;14.608;2022-11-30T11:23:32;29.50;;;15.32;;
4565;SDS011;2295;51.050;14.608;2022-11-30T11:26:05;34.10;;;15.82;;
4565;SDS011;2295;51.050;14.608;2022-11-30T11:28:35;31.92;;;15.23;;
4565;SDS011;2295;51.050;14.608;2022-11-30T11:31:14;33.08;;;16.02;;
4565;SDS011;2295;51.050;14.608;2022-11-30T11:33:49;24.05;;;14.18;;
4565;SDS011;2295;51.050;14.608;2022-11-30T11:36:24;19.40;;;12.23;;
4565;SDS011;2295;51.050;14.608;2022-11-30T11:38:54;19.55;;;10.77;;
4565;SDS011;2295;51.050;14.608;2022-11-30T11:41:24;18.25;;;10.55;;
4565;SDS011;2295;51.050;14.608;2022-11-30T11:44:01;18.80;;;10.57;;
4565;SDS011;2295;51.050;14.608;2022-11-30T11:46:34;18.58;;;10.98;;
4565;SDS011;2295;51.050;14.608;2022-11-30T11:49:05;18.45;;;10.20;;
4565;SDS011;2295;51.050;14.608;2022-11-30T11:51:46;14.32;;;9.23;;
4565;SDS011;2295;51.050;14.608;2022-11-30T11:54:26;13.45;;;8.63;;
4565;SDS011;2295;51.050;14.608;2022-11-30T11:56:59;17.55;;;9.13;;
4565;SDS011;2295;51.050;14.608;2022-11-30T11:59:30;13.20;;;8.20;;
4565;SDS011;2295;51.050;14.608;2022-11-30T12:02:11;13.45;;;8.65;;
4565;SDS011;2295;51.050;14.608;2022-11-30T12:04:50;14.63;;;8.73;;
4565;SDS011;2295;51.050;14.608;2022-11-30T12:07:24;11.40;;;7.60;;
4565;SDS011;2295;51.050;14.608;2022-11-30T12:10:03;10.82;;;6.90;;
4565;SDS011;2295;51.050;14.608;2022-11-30T12:13:04;8.57;;;6.20;;
4565;SDS011;2295;51.050;14.608;2022-11-30T12:15:41;8.80;;;5.53;;
4565;SDS011;2295;51.050;14.608;2022-11-30T12:18:24;10.48;;;7.15;;
4565;SDS011;2295;51.050;14.608;2022-11-30T12:21:01;11.43;;;7.07;;
4565;SDS011;2295;51.050;14.608;2022-11-30T12:23:47;8.25;;;5.85;;
4565;SDS011;2295;51.050;14.608;2022-11-30T12:26:46;11.55;;;7.00;;
4565;SDS011;2295;51.050;14.608;2022-11-30T12:29:21;10.32;;;7.40;;
4565;SDS011;2295;51.050;14.608;2022-11-30T12:31:58;13.88;;;6.75;;
4565;SDS011;2295;51.050;14.608;2022-11-30T12:34:40;13.82;;;7.18;;
4565;SDS011;2295;51.050;14.608;2022-11-30T12:37:20;12.50;;;6.50;;
4565;SDS011;2295;51.050;14.608;2022-11-30T12:39:59;10.18;;;6.35;;
4565;SDS011;2295;51.050;14.608;2022-11-30T12:42:36;9.10;;;6.40;;
4565;SDS011;2295;51.050;14.608;2022-11-30T12:45:14;10.98;;;6.18;;
4565;SDS011;2295;51.050;14.608;2022-11-30T12:47:52;11.30;;;6.57;;
4565;SDS011;2295;51.050;14.608;2022-11-30T12:50:34;11.90;;;6.95;;
4565;SDS011;2295;51.050;14.608;2022-11-30T12:53:12;10.38;;;6.38;;
4565;SDS011;2295;51.050;14.608;2022-11-30T12:55:50;11.35;;;7.53;;
4565;SDS011;2295;51.050;14.608;2022-11-30T12:58:29;11.65;;;7.38;;
4565;SDS011;2295;51.050;14.608;2022-11-30T13:01:08;50.13;;;23.55;;
4565;SDS011;2295;51.050;14.608;2022-11-30T13:03:54;56.20;;;25.33;;
4565;SDS011;2295;51.050;14.608;2022-11-30T13:06:28;58.28;;;27.23;;
4565;SDS011;2295;51.050;14.608;2022-11-30T13:09:00;65.03;;;29.25;;
4565;SDS011;2295;51.050;14.608;2022-11-30T13:11:37;69.88;;;31.67;;
4565;SDS011;2295;51.050;14.608;2022-11-30T13:14:09;74.63;;;30.52;;
4565;SDS011;2295;51.050;14.608;2022-11-30T13:16:43;76.68;;;33.63;;
4565;SDS011;2295;51.050;14.608;2022-11-30T13:19:23;77.05;;;34.92;;
4565;SDS011;2295;51.050;14.608;2022-11-30T13:22:18;76.38;;;34.40;;
4565;SDS011;2295;51.050;14.608;2022-11-30T13:24:54;81.95;;;35.85;;
4565;SDS011;2295;51.050;14.608;2022-11-30T13:27:29;83.57;;;36.55;;
4565;SDS011;2295;51.050;14.608;2022-11-30T13:36:33;92.97;;;41.80;;
4565;SDS011;2295;51.050;14.608;2022-11-30T13:39:23;92.85;;;39.78;;
4565;SDS011;2295;51.050;14.608;2022-11-30T13:45:31;101.63;;;40.97;;
4565;SDS011;2295;51.050;14.608;2022-11-30T13:48:17;101.53;;;41.38;;
4565;SDS011;2295;51.050;14.608;2022-11-30T13:51:16;97.00;;;42.40;;
4565;SDS011;2295;51.050;14.608;2022-11-30T13:54:42;108.32;;;42.20;;
4565;SDS011;2295;51.050;14.608;2022-11-30T13:57:17;98.55;;;40.00;;
4565;SDS011;2295;51.050;14.608;2022-11-30T14:00:48;104.25;;;43.13;;
4565;SDS011;2295;51.050;14.608;2022-11-30T14:04:27;103.13;;;44.22;;
4565;SDS011;2295;51.050;14.608;2022-11-30T14:07:39;96.28;;;42.08;;
4565;SDS011;2295;51.050;14.608;2022-11-30T14:10:27;91.72;;;40.40;;
4565;SDS011;2295;51.050;14.608;2022-11-30T14:13:26;99.40;;;41.03;;
4565;SDS011;2295;51.050;14.608;2022-11-30T14:16:21;101.72;;;40.00;;
4565;SDS011;2295;51.050;14.608;2022-11-30T14:18:53;99.15;;;38.92;;
4565;SDS011;2295;51.050;14.608;2022-11-30T14:21:31;93.20;;;41.05;;
4565;SDS011;2295;51.050;14.608;2022-11-30T14:24:20;98.68;;;39.90;;
4565;SDS011;2295;51.050;14.608;2022-11-30T14:26:56;108.05;;;41.10;;
4565;SDS011;2295;51.050;14.608;2022-11-30T14:29:26;102.93;;;41.72;;
4565;SDS011;2295;51.050;14.608;2022-11-30T14:32:11;103.40;;;41.92;;
4565;SDS011;2295;51.050;14.608;2022-11-30T14:35:04;108.10;;;43.50;;
4565;SDS011;2295;51.050;14.608;2022-11-30T14:37:53;110.22;;;40.63;;
4565;SDS011;2295;51.050;14.608;2022-11-30T14:40:56;101.30;;;38.80;;
4565;SDS011;2295;51.050;14.608;2022-11-30T14:44:32;102.57;;;37.95;;
4565;SDS011;2295;51.050;14.608;2022-11-30T14:47:14;104.53;;;40.13;;
4565;SDS011;2295;51.050;14.608;2022-11-30T14:49:57;104.63;;;38.40;;
4565;SDS011;2295;51.050;14.608;2022-11-30T14:52:39;103.25;;;40.30;;
4565;SDS011;2295;51.050;14.608;2022-11-30T14:55:24;110.00;;;39.30;;
4565;SDS011;2295;51.050;14.608;2022-11-30T14:58:07;112.50;;;41.17;;
4565;SDS011;2295;51.050;14.608;2022-11-30T15:00:51;120.70;;;41.65;;
4565;SDS011;2295;51.050;14.608;2022-11-30T15:03:33;123.10;;;42.85;;
4565;SDS011;2295;51.050;14.608;2022-11-30T15:06:07;130.75;;;42.45;;
4565;SDS011;2295;51.050;14.608;2022-11-30T15:08:53;125.30;;;42.90;;
4565;SDS011;2295;51.050;14.608;2022-11-30T15:11:24;138.90;;;46.20;;
4565;SDS011;2295;51.050;14.608;2022-11-30T15:14:01;120.43;;;42.28;;
4565;SDS011;2295;51.050;14.608;2022-11-30T15:16:45;125.20;;;42.15;;
4565;SDS011;2295;51.050;14.608;2022-11-30T15:19:23;129.38;;;42.38;;
4565;SDS011;2295;51.050;14.608;2022-11-30T15:22:00;122.95;;;41.03;;
4565;SDS011;2295;51.050;14.608;2022-11-30T15:24:32;133.70;;;43.05;;